Time;durP1;ratioP1;P1;durP2;ratioP2;P2;SDS_P1;SDS_P2;PMS_P1;PMS_P2;Temp;Humidity;BMP_temperature;BMP_pressure;BME280_temperature;BME280_humidity;BME280_pressure;Samples;Min_cycle;Max_cycle;Signal;HPM_P1;HPM_P2
2023/03/22 00:00:34;;;;;;;4.00;1.50;;;;;;;19.98;42.77;100867.63;5056434;28;20036;-75
2023/03/22 00:02:59;;;;;;;2.42;1.77;;;;;;;20.01;42.39;100879.91;5060092;28;20032;-74
2023/03/22 00:05:25;;;;;;;2.38;1.55;;;;;;;19.73;42.62;100832.66;5062039;28;20086;-75
2023/03/22 00:07:53;;;;;;;2.47;1.65;;;;;;;19.98;42.55;100865.75;5052465;28;20036;-75
2023/03/22 00:10:18;;;;;;;2.75;1.67;;;;;;;19.97;42.34;100864.06;5054432;28;20112;-74
2023/03/22 00:12:44;;;;;;;1.60;1.30;;;;;;;19.75;42.71;100818.97;5048415;28;20037;-74
2023/03/22 00:15:10;;;;;;;2.97;1.80;;;;;;;19.95;42.56;100866.09;5049544;28;20143;-76
2023/03/22 00:17:35;;;;;;;2.30;1.60;;;;;;;19.70;42.71;100818.66;5056644;28;20060;-75
2023/03/22 00:20:05;;;;;;;2.97;1.60;;;;;;;19.93;42.58;100864.63;5059053;28;20037;-75
2023/03/22 00:22:31;;;;;;;3.47;1.77;;;;;;;19.92;42.31;100860.22;5061794;28;20410;-74
2023/03/22 00:24:56;;;;;;;2.05;1.65;;;;;;;19.79;42.29;100835.66;5052746;28;20024;-75
2023/03/22 00:27:21;;;;;;;3.45;2.25;;;;;;;19.90;42.38;100860.41;5055612;28;20087;-75
2023/03/22 00:29:47;;;;;;;2.92;1.63;;;;;;;19.74;42.78;100825.41;5054129;28;20033;-76
2023/03/22 00:32:12;;;;;;;2.30;1.30;;;;;;;19.88;42.55;100858.88;5048426;28;20026;-75
2023/03/22 00:34:37;;;;;;;2.42;1.52;;;;;;;19.57;42.71;100794.94;5058224;28;20041;-75
2023/03/22 00:37:03;;;;;;;2.95;1.67;;;;;;;19.85;42.61;100846.59;5061973;28;20029;-74
2023/03/22 00:39:28;;;;;;;2.90;1.90;;;;;;;19.48;42.65;100786.03;5052885;28;20037;-75
2023/03/22 00:41:54;;;;;;;2.50;1.60;;;;;;;19.71;42.21;100836.56;5059601;28;20030;-75
2023/03/22 00:44:19;;;;;;;2.75;1.77;;;;;;;19.78;42.66;100840.22;5057455;28;20348;-75
2023/03/22 00:46:44;;;;;;;2.72;1.50;;;;;;;19.65;42.59;100823.75;5056680;28;20021;-74
2023/03/22 00:49:10;;;;;;;2.20;1.83;;;;;;;19.79;42.70;100844.59;5050685;28;20036;-74
2023/03/22 00:51:35;;;;;;;2.72;2.05;;;;;;;19.78;42.82;100840.22;5054321;28;20025;-74
2023/03/22 00:54:00;;;;;;;2.05;1.25;;;;;;;19.55;42.84;100804.22;5054138;28;20047;-75
2023/03/22 00:56:27;;;;;;;1.92;1.55;;;;;;;19.77;42.73;100841.25;5058720;28;20040;-76
2023/03/22 00:58:52;;;;;;;3.63;1.75;;;;;;;19.73;42.75;100835.34;5048828;28;20025;-76
2023/03/22 01:01:18;;;;;;;2.03;1.50;;;;;;;19.51;42.72;100798.34;5058976;28;20028;-74
2023/03/22 01:03:43;;;;;;;2.47;1.63;;;;;;;19.70;42.76;100826.75;5055619;28;20021;-74
2023/03/22 01:06:09;;;;;;;2.20;1.50;;;;;;;19.48;42.71;100791.44;5051233;28;20140;-75
2023/03/22 01:08:37;;;;;;;2.83;1.70;;;;;;;19.71;42.66;100831.16;5044960;28;20474;-74
2023/03/22 01:11:02;;;;;;;2.00;1.58;;;;;;;19.60;42.46;100804.53;5051186;28;20033;-74
2023/03/22 01:13:28;;;;;;;2.83;1.65;;;;;;;19.68;42.54;100815.31;5071929;28;20364;-74
2023/03/22 01:15:53;;;;;;;3.33;1.50;;;;;;;19.59;42.39;100805.56;5055302;28;20030;-75
2023/03/22 01:18:19;;;;;;;2.40;1.48;;;;;;;19.65;42.59;100803.03;5047221;28;20447;-75
2023/03/22 01:20:44;;;;;;;3.15;1.55;;;;;;;19.64;42.60;100812.13;5051051;28;20095;-76
2023/03/22 01:23:09;;;;;;;2.97;1.90;;;;;;;19.50;42.65;100796.66;5053898;28;20029;-75
2023/03/22 01:25:35;;;;;;;2.75;1.65;;;;;;;19.62;42.83;100816.00;5048657;28;20418;-75
2023/03/22 01:28:01;;;;;;;2.88;1.50;;;;;;;19.61;42.73;100811.63;5048467;28;20029;-74
2023/03/22 01:30:27;;;;;;;3.00;1.60;;;;;;;19.31;42.69;100757.47;5047523;28;20406;-75
2023/03/22 01:32:52;;;;;;;2.92;1.52;;;;;;;19.14;42.64;100720.81;5036471;28;20030;-75
2023/03/22 01:35:18;;;;;;;2.17;1.75;;;;;;;19.59;42.76;100792.09;5049739;28;20034;-75
2023/03/22 01:37:43;;;;;;;1.63;1.15;;;;;;;19.33;42.50;100747.38;5049328;28;20036;-76
2023/03/22 01:40:10;;;;;;;2.10;1.40;;;;;;;19.54;42.81;100770.16;5047814;28;20075;-76
2023/03/22 01:42:36;;;;;;;2.13;1.38;;;;;;;18.96;42.91;100678.78;5064970;28;20013;-74
2023/03/22 01:45:14;;;;;;;2.65;1.60;;;;;;;19.53;42.69;100772.03;5061252;28;20048;-75
2023/03/22 01:47:55;;;;;;;3.97;1.70;;;;;;;19.47;42.77;100760.09;5050999;28;20072;-74
2023/03/22 01:50:21;;;;;;;1.95;1.48;;;;;;;19.16;42.49;100711.56;5063968;28;20032;-74
2023/03/22 01:52:47;;;;;;;3.67;1.70;;;;;;;19.51;42.80;100760.59;5046518;28;20095;-74
2023/03/22 01:55:12;;;;;;;2.85;1.60;;;;;;;19.49;42.78;100768.00;5054177;28;20029;-75
2023/03/22 01:57:39;;;;;;;3.75;1.90;;;;;;;19.48;42.77;100750.16;5048502;28;20501;-76
2023/03/22 02:00:09;;;;;;;2.25;1.40;;;;;;;19.32;42.50;100721.41;5061459;28;20048;-76
2023/03/22 02:02:35;;;;;;;2.70;1.70;;;;;;;19.33;42.56;100712.31;5045381;28;20026;-76
2023/03/22 02:05:00;;;;;;;2.25;1.35;;;;;;;19.45;42.80;100729.78;5052837;28;20432;-75
2023/03/22 02:07:26;;;;;;;1.58;1.10;;;;;;;19.45;42.58;100734.31;5058605;28;20065;-76
2023/03/22 02:09:52;;;;;;;2.22;1.50;;;;;;;19.43;42.74;100731.81;5061960;28;20029;-76
2023/03/22 02:12:41;;;;;;;2.38;1.38;;;;;;;19.43;42.54;100734.50;5048696;28;20028;-75
2023/03/22 02:15:32;;;;;;;2.55;1.50;;;;;;;19.43;42.92;100718.31;5054380;28;20032;-75
2023/03/22 02:18:10;;;;;;;2.60;1.27;;;;;;;19.41;42.75;100719.50;5046399;28;20029;-75
2023/03/22 02:20:41;;;;;;;2.87;1.73;;;;;;;19.39;42.99;100714.31;5052386;28;20089;-76
2023/03/22 02:23:28;;;;;;;3.13;1.63;;;;;;;19.38;42.89;100712.63;5056579;28;20270;-75
2023/03/22 02:26:40;;;;;;;2.08;1.20;;;;;;;19.38;42.86;100718.03;5053045;28;20032;-74
2023/03/22 02:29:15;;;;;;;2.63;1.70;;;;;;;19.35;42.91;100701.34;5054605;28;20033;-76
2023/03/22 02:32:05;;;;;;;2.58;1.38;;;;;;;19.33;42.73;100693.44;5060156;28;20398;-75
2023/03/22 02:34:56;;;;;;;2.97;2.10;;;;;;;19.33;42.95;100693.44;5058661;28;20029;-76
2023/03/22 02:37:36;;;;;;;1.58;1.25;;;;;;;19.17;42.94;100669.28;5051687;28;20561;-76
2023/03/22 02:40:20;;;;;;;2.45;1.45;;;;;;;19.30;42.94;100680.31;5062717;28;20033;-76
2023/03/22 02:43:04;;;;;;;3.28;1.50;;;;;;;19.29;42.81;100686.72;5056172;28;20037;-74
2023/03/22 02:45:50;;;;;;;1.58;1.27;;;;;;;19.29;42.96;100688.59;5051393;28;20053;-74
2023/03/22 02:48:27;;;;;;;2.95;1.38;;;;;;;19.27;42.80;100688.75;5063655;28;20029;-74
2023/03/22 02:51:01;;;;;;;1.90;1.60;;;;;;;19.27;43.04;100677.13;5057099;28;20039;-74
2023/03/22 02:53:29;;;;;;;2.20;1.50;;;;;;;18.98;42.99;100628.25;5070063;28;20029;-75
2023/03/22 02:56:03;;;;;;;3.65;1.40;;;;;;;19.02;42.71;100638.69;5051629;28;20033;-75
2023/03/22 02:58:33;;;;;;;2.35;1.80;;;;;;;19.16;42.91;100657.66;5073554;28;20040;-75
2023/03/22 03:01:02;;;;;;;1.60;1.48;;;;;;;19.09;42.82;100645.91;5071214;28;20025;-76
2023/03/22 03:03:30;;;;;;;2.30;1.55;;;;;;;19.22;42.83;100658.78;5050207;28;20398;-74
2023/03/22 03:05:58;;;;;;;2.80;1.30;;;;;;;19.20;42.83;100656.28;5062081;28;20120;-75
2023/03/22 03:08:27;;;;;;;1.58;1.10;;;;;;;19.20;43.20;100660.84;5073902;28;20284;-75
2023/03/22 03:10:53;;;;;;;3.15;1.90;;;;;;;19.19;42.79;100653.75;5053165;28;20048;-75
2023/03/22 03:13:18;;;;;;;4.22;2.50;;;;;;;19.05;42.89;100624.88;5052347;28;20029;-75
2023/03/22 03:15:51;;;;;;;1.77;1.48;;;;;;;18.92;43.05;100611.97;5064742;28;20032;-75
2023/03/22 03:18:33;;;;;;;2.83;1.60;;;;;;;19.17;42.96;100648.53;5070299;28;20032;-76
2023/03/22 03:21:18;;;;;;;2.80;1.67;;;;;;;19.17;42.85;100640.47;5051409;28;20029;-75
2023/03/22 03:24:14;;;;;;;1.83;1.25;;;;;;;19.03;43.06;100621.50;5050028;28;20075;-75
2023/03/22 03:26:43;;;;;;;2.85;1.55;;;;;;;19.15;43.15;100628.16;5051364;28;20033;-74
2023/03/22 03:29:18;;;;;;;2.85;1.70;;;;;;;19.12;43.11;100632.06;5052631;28;20029;-75
2023/03/22 03:31:46;;;;;;;3.25;1.40;;;;;;;19.05;42.91;100619.47;5066328;28;20024;-75
2023/03/22 03:34:19;;;;;;;2.40;1.63;;;;;;;19.12;42.97;100633.94;5051540;28;20032;-75
2023/03/22 03:37:02;;;;;;;1.75;1.30;;;;;;;19.10;42.94;100631.41;5055143;28;20478;-75
2023/03/22 03:39:29;;;;;;;1.88;1.58;;;;;;;19.10;43.24;100634.09;5064245;28;20032;-76
2023/03/22 03:41:55;;;;;;;2.90;1.85;;;;;;;18.92;43.00;100609.28;5050838;28;20082;-75
2023/03/22 03:44:21;;;;;;;2.25;1.50;;;;;;;19.07;43.23;100637.13;5063483;28;20104;-74
2023/03/22 03:46:47;;;;;;;2.60;1.70;;;;;;;19.06;42.97;100635.47;5051349;28;20026;-74
2023/03/22 03:49:15;;;;;;;2.95;1.88;;;;;;;18.90;43.15;100604.06;5052294;28;20468;-76
2023/03/22 03:51:46;;;;;;;3.08;1.50;;;;;;;18.83;43.08;100588.78;5049971;28;20038;-76
2023/03/22 03:54:11;;;;;;;2.15;1.63;;;;;;;19.06;42.78;100629.22;5062405;28;20053;-75
2023/03/22 03:56:36;;;;;;;2.80;1.52;;;;;;;18.98;43.00;100609.38;5049661;28;20034;-74
2023/03/22 03:59:02;;;;;;;2.13;1.85;;;;;;;19.03;42.97;100621.50;5053087;28;20134;-74
2023/03/22 04:01:27;;;;;;;2.83;1.80;;;;;;;18.86;43.32;100602.75;5050801;28;20037;-75
2023/03/22 04:03:54;;;;;;;1.83;1.40;;;;;;;19.02;43.11;100631.44;5061620;28;20017;-75
2023/03/22 04:06:19;;;;;;;2.33;1.50;;;;;;;19.01;43.05;100628.94;5050312;28;20179;-73
2023/03/22 04:08:44;;;;;;;3.20;1.75;;;;;;;19.00;43.26;100627.25;5055996;28;20029;-76
2023/03/22 04:11:10;;;;;;;3.58;1.90;;;;;;;18.76;43.13;100595.88;5049867;28;20025;-75
2023/03/22 04:13:35;;;;;;;3.83;1.85;;;;;;;18.86;43.05;100612.66;5058619;28;20055;-76
2023/03/22 04:16:01;;;;;;;3.83;2.20;;;;;;;18.61;43.25;100582.28;5067378;28;20053;-75
2023/03/22 04:18:28;;;;;;;2.17;1.73;;;;;;;18.96;43.02;100627.59;5054531;28;20659;-75
2023/03/22 04:20:56;;;;;;;2.53;1.55;;;;;;;18.69;43.34;100587.59;5050028;28;20021;-75
2023/03/22 04:23:22;;;;;;;2.35;1.65;;;;;;;18.73;43.20;100591.66;5049088;28;20040;-75
2023/03/22 04:25:49;;;;;;;4.82;2.00;;;;;;;18.94;43.40;100621.53;5069425;28;20029;-75
2023/03/22 04:28:15;;;;;;;3.05;1.60;;;;;;;18.95;43.32;100631.31;5053133;28;20029;-75
2023/03/22 04:30:40;;;;;;;2.47;2.08;;;;;;;18.95;43.24;100625.94;5059544;28;20033;-75
2023/03/22 04:33:05;;;;;;;2.92;1.95;;;;;;;18.94;43.25;100628.78;5061548;28;20471;-76
2023/03/22 04:35:33;;;;;;;3.33;1.95;;;;;;;18.93;43.12;100622.56;5058975;28;20025;-75
2023/03/22 04:38:00;;;;;;;1.95;1.60;;;;;;;18.94;43.34;100626.91;5051301;28;20029;-75
2023/03/22 04:40:27;;;;;;;2.97;2.03;;;;;;;18.89;43.05;100602.38;5044171;28;20029;-74
2023/03/22 04:42:56;;;;;;;2.70;1.50;;;;;;;18.90;43.68;100605.91;5060783;28;20026;-75
2023/03/22 04:45:21;;;;;;;2.35;1.38;;;;;;;18.92;43.22;100610.09;5051873;28;20037;-76
2023/03/22 04:47:47;;;;;;;2.42;1.48;;;;;;;18.93;43.34;100606.38;5051948;28;20039;-75
2023/03/22 04:50:12;;;;;;;2.22;1.95;;;;;;;18.93;43.26;100602.84;5047321;28;20045;-76
2023/03/22 04:52:37;;;;;;;2.30;1.73;;;;;;;18.93;43.21;100611.78;5060840;28;20089;-76
2023/03/22 04:55:03;;;;;;;3.08;1.73;;;;;;;18.76;43.25;100580.56;5056531;28;20032;-75
2023/03/22 04:57:28;;;;;;;2.53;1.90;;;;;;;18.89;43.34;100599.66;5050707;28;20083;-75
2023/03/22 04:59:53;;;;;;;3.20;1.60;;;;;;;18.94;43.10;100602.66;5049357;28;20108;-75
2023/03/22 05:02:19;;;;;;;1.58;1.35;;;;;;;18.94;43.07;100594.59;5071086;28;20033;-76
2023/03/22 05:04:44;;;;;;;3.38;1.55;;;;;;;18.84;43.08;100580.50;5053912;28;20032;-76
2023/03/22 05:07:09;;;;;;;2.22;1.70;;;;;;;18.95;43.11;100596.28;5063419;28;20124;-75
2023/03/22 05:09:35;;;;;;;2.92;1.75;;;;;;;18.90;43.36;100582.53;5048627;28;20084;-76
2023/03/22 05:12:00;;;;;;;2.13;1.40;;;;;;;18.64;43.10;100545.06;5056990;28;20081;-75
2023/03/22 05:14:26;;;;;;;2.00;1.55;;;;;;;18.77;43.31;100554.44;5052176;28;20032;-75
2023/03/22 05:16:51;;;;;;;3.72;1.92;;;;;;;18.75;43.25;100553.81;5061794;28;20677;-75
2023/03/22 05:19:21;;;;;;;3.38;1.50;;;;;;;18.97;43.32;100578.09;5048229;28;20033;-75
2023/03/22 05:21:46;;;;;;;2.55;1.58;;;;;;;18.91;43.20;100568.03;5055518;28;20026;-74
2023/03/22 05:24:12;;;;;;;2.40;1.50;;;;;;;19.00;43.19;100565.28;5048110;28;20032;-76
2023/03/22 05:26:41;;;;;;;2.08;1.60;;;;;;;18.93;43.08;100563.28;5048550;28;20051;-74
2023/03/22 05:29:07;;;;;;;2.22;1.80;;;;;;;19.02;43.17;100579.41;5060515;28;20088;-76
2023/03/22 05:31:33;;;;;;;2.55;1.70;;;;;;;19.02;43.18;100572.16;5053233;28;20025;-76
2023/03/22 05:34:00;;;;;;;2.40;1.48;;;;;;;18.88;43.17;100557.59;5048454;28;20035;-75
2023/03/22 05:36:28;;;;;;;2.95;1.35;;;;;;;19.08;42.92;100565.25;5064993;28;20025;-75
2023/03/22 05:38:55;;;;;;;1.80;1.27;;;;;;;18.88;43.05;100529.81;5048293;28;20044;-74
2023/03/22 05:41:20;;;;;;;2.25;1.50;;;;;;;19.11;42.80;100571.09;5066575;28;20061;-75
2023/03/22 05:43:45;;;;;;;2.92;1.75;;;;;;;18.87;42.98;100529.00;5061050;28;20025;-75
2023/03/22 05:46:11;;;;;;;2.88;1.55;;;;;;;18.80;43.01;100511.84;5051827;28;20026;-75
2023/03/22 05:48:37;;;;;;;3.13;1.60;;;;;;;18.52;42.73;100505.22;5049242;28;20460;-75
2023/03/22 05:51:12;;;;;;;1.85;1.55;;;;;;;19.16;42.94;100575.97;5067369;28;20029;-76
2023/03/22 05:53:38;;;;;;;2.95;1.40;;;;;;;19.18;42.77;100569.38;5052180;28;20071;-76
2023/03/22 05:56:04;;;;;;;2.47;1.60;;;;;;;19.15;42.86;100568.88;5065761;28;20021;-73
2023/03/22 05:58:30;;;;;;;2.83;1.40;;;;;;;19.22;42.63;100575.25;5063596;28;20029;-70
2023/03/22 06:00:59;;;;;;;1.83;1.45;;;;;;;19.03;42.95;100536.13;5050443;28;20047;-71
2023/03/22 06:03:25;;;;;;;2.35;1.40;;;;;;;18.87;42.96;100502.06;5063170;28;20024;-72
2023/03/22 06:05:53;;;;;;;4.32;1.88;;;;;;;19.27;42.95;100556.66;5050150;28;20045;-71
2023/03/22 06:08:19;;;;;;;4.88;1.58;;;;;;;19.29;43.39;100567.28;5049609;28;20017;-71
2023/03/22 06:10:47;;;;;;;2.45;1.58;;;;;;;19.16;43.15;100544.47;5055573;28;20098;-71
2023/03/22 06:13:13;;;;;;;3.33;1.75;;;;;;;19.34;43.09;100570.28;5041347;28;20043;-69
2023/03/22 06:15:38;;;;;;;1.85;1.52;;;;;;;19.31;43.46;100557.16;5051040;28;20030;-70
2023/03/22 06:18:03;;;;;;;2.60;1.40;;;;;;;19.39;43.40;100559.78;5064804;28;20509;-70
2023/03/22 06:20:29;;;;;;;2.40;1.65;;;;;;;19.28;43.46;100538.63;5057083;28;20035;-72
2023/03/22 06:22:55;;;;;;;2.05;1.20;;;;;;;19.44;43.58;100566.31;5050567;28;20039;-70
2023/03/22 06:25:20;;;;;;;3.00;1.45;;;;;;;19.19;43.48;100517.13;5057378;28;20399;-73
2023/03/22 06:27:45;;;;;;;2.05;1.20;;;;;;;19.17;43.22;100500.31;5056833;28;20030;-72
2023/03/22 06:30:11;;;;;;;1.48;1.30;;;;;;;19.19;43.00;100497.44;5074214;28;20033;-70
2023/03/22 06:32:36;;;;;;;3.10;1.75;;;;;;;19.18;43.01;100504.69;5052813;28;20029;-70
2023/03/22 06:35:01;;;;;;;1.90;1.50;;;;;;;18.92;43.08;100459.25;5050838;28;20035;-70
2023/03/22 06:37:26;;;;;;;3.17;1.60;;;;;;;19.45;43.24;100534.78;5062446;28;20037;-69
2023/03/22 06:39:52;;;;;;;1.70;1.20;;;;;;;19.57;43.14;100560.31;5060538;28;20036;-68
2023/03/22 06:42:17;;;;;;;1.92;1.25;;;;;;;19.32;43.27;100513.84;5054193;28;20051;-68
2023/03/22 06:44:43;;;;;;;2.72;1.40;;;;;;;19.60;43.33;100554.56;5051711;28;20029;-68
2023/03/22 06:47:09;;;;;;;1.85;1.35;;;;;;;19.62;42.94;100559.78;5059326;28;20031;-70
2023/03/22 06:49:35;;;;;;;3.10;1.42;;;;;;;19.48;43.06;100532.56;5060132;28;20040;-68
2023/03/22 06:52:00;;;;;;;2.08;1.35;;;;;;;19.70;43.25;100557.88;5054336;28;20025;-69
2023/03/22 06:54:25;;;;;;;1.98;1.25;;;;;;;19.59;43.31;100543.97;5049141;28;20048;-69
2023/03/22 06:56:51;;;;;;;3.55;1.50;;;;;;;19.73;43.42;100556.69;5063602;28;20035;-67
2023/03/22 06:59:16;;;;;;;2.55;1.35;;;;;;;19.75;43.03;100556.47;5063296;28;20030;-68
2023/03/22 07:01:41;;;;;;;3.22;1.60;;;;;;;19.78;42.96;100546.16;5057457;28;20036;-68
2023/03/22 07:04:06;;;;;;;1.83;1.20;;;;;;;19.49;43.20;100506.44;5051182;28;20033;-68
2023/03/22 07:06:32;;;;;;;2.33;1.40;;;;;;;19.18;43.03;100431.09;5060154;28;20172;-69
2023/03/22 07:08:58;;;;;;;2.10;1.10;;;;;;;19.64;43.15;100511.91;5056162;28;20033;-68
2023/03/22 07:11:25;;;;;;;2.55;1.40;;;;;;;19.86;43.11;100540.69;5051054;28;20029;-69
2023/03/22 07:13:52;;;;;;;1.60;1.20;;;;;;;19.79;42.76;100531.66;5057818;28;20028;-68
2023/03/22 07:16:17;;;;;;;5.70;1.75;;;;;;;19.88;42.66;100537.81;5058581;28;20021;-68
2023/03/22 07:18:43;;;;;;;4.15;1.58;;;;;;;19.77;42.75;100514.81;5061898;28;20021;-68
2023/03/22 07:21:08;;;;;;;2.30;1.25;;;;;;;19.64;43.03;100490.34;5058439;28;20075;-68
2023/03/22 07:23:33;;;;;;;1.42;1.20;;;;;;;19.68;43.06;100505.97;5060349;28;20017;-68
2023/03/22 07:25:59;;;;;;;3.13;1.30;;;;;;;19.75;42.41;100516.84;5059333;28;20053;-72
2023/03/22 07:28:25;;;;;;;2.67;1.20;;;;;;;20.03;42.51;100537.84;5061130;28;20155;-72
2023/03/22 07:30:59;;;;;;;2.70;1.30;;;;;;;19.95;42.72;100542.28;5043171;28;20563;-72
2023/03/22 07:33:24;;;;;;;2.03;1.48;;;;;;;19.64;43.02;100488.47;5062942;28;20024;-73
2023/03/22 07:35:49;;;;;;;2.28;1.30;;;;;;;20.08;42.25;100544.34;5058997;28;20033;-73
2023/03/22 07:38:15;;;;;;;2.85;1.20;;;;;;;19.94;42.44;100527.13;5046375;28;20040;-72
2023/03/22 07:40:40;;;;;;;2.30;1.30;;;;;;;20.12;42.20;100550.22;5057278;28;20033;-69
2023/03/22 07:43:05;;;;;;;4.53;1.35;;;;;;;19.83;42.38;100502.44;5048886;28;20025;-71
2023/03/22 07:45:31;;;;;;;2.35;1.30;;;;;;;20.01;42.21;100531.78;5055027;28;20032;-71
2023/03/22 07:47:56;;;;;;;1.55;1.10;;;;;;;20.11;42.49;100540.44;5047795;28;20535;-75
2023/03/22 07:50:21;;;;;;;1.35;1.23;;;;;;;20.18;42.32;100549.50;5052417;28;20033;-71
2023/03/22 07:52:46;;;;;;;1.95;1.48;;;;;;;19.93;42.32;100503.03;5052061;28;20029;-70
2023/03/22 07:55:13;;;;;;;3.45;1.30;;;;;;;20.20;42.11;100544.72;5051359;28;20029;-70
2023/03/22 07:57:39;;;;;;;2.10;1.35;;;;;;;20.22;41.91;100526.50;5054088;28;20021;-71
2023/03/22 08:00:08;;;;;;;2.72;1.55;;;;;;;19.93;42.18;100479.59;5049390;28;20029;-71
2023/03/22 08:02:33;;;;;;;;;;;;;;;20.27;41.99;100556.47;5054306;28;20052;-69
2023/03/22 08:04:58;;;;;;;2.45;1.45;;;;;;;20.28;41.83;100544.63;5049118;28;20358;-70
2023/03/22 08:07:24;;;;;;;2.63;1.30;;;;;;;20.30;42.17;100550.66;5056602;28;20045;-71
2023/03/22 08:09:50;;;;;;;2.85;1.30;;;;;;;20.12;42.04;100520.53;5068541;28;20556;-71
2023/03/22 08:12:15;;;;;;;2.20;1.30;;;;;;;20.27;42.13;100529.47;5051151;28;20022;-74
2023/03/22 08:14:40;;;;;;;3.75;1.33;;;;;;;20.36;41.65;100546.41;5062135;28;20379;-74
2023/03/22 08:17:05;;;;;;;1.60;1.13;;;;;;;20.38;41.88;100550.56;5054030;28;20029;-74
2023/03/22 08:19:32;;;;;;;2.17;1.65;;;;;;;20.39;41.88;100540.63;5048699;28;20079;-74
2023/03/22 08:21:58;;;;;;;2.25;1.10;;;;;;;20.41;41.66;100552.09;5048544;28;20025;-75
2023/03/22 08:24:24;;;;;;;1.98;1.20;;;;;;;20.32;41.50;100518.09;5061024;28;20017;-74
2023/03/22 08:26:49;;;;;;;1.65;1.00;;;;;;;20.19;41.85;100500.72;5070326;28;20029;-74
2023/03/22 08:29:15;;;;;;;1.58;1.10;;;;;;;20.21;41.47;100498.63;5049437;28;20025;-74
2023/03/22 08:31:41;;;;;;;3.47;1.58;;;;;;;20.32;41.35;100510.84;5049515;28;20025;-73
2023/03/22 08:34:06;;;;;;;2.83;1.27;;;;;;;20.23;41.53;100483.13;5055034;28;20018;-73
2023/03/22 08:36:31;;;;;;;1.45;1.10;;;;;;;20.43;41.46;100514.91;5068591;28;20035;-73
2023/03/22 08:38:56;;;;;;;2.38;1.30;;;;;;;20.36;41.08;100509.44;5059266;28;20436;-74
2023/03/22 08:41:22;;;;;;;2.15;1.13;;;;;;;20.39;41.20;100516.31;5052122;28;20116;-74
2023/03/22 08:43:47;;;;;;;4.28;1.45;;;;;;;20.38;41.25;100518.19;5041060;28;20029;-73
2023/03/22 08:46:13;;;;;;;3.42;1.30;;;;;;;20.37;41.17;100511.09;5052506;28;20033;-73
2023/03/22 08:48:40;;;;;;;3.45;1.38;;;;;;;20.05;41.06;100449.41;5058721;28;20029;-74
2023/03/22 08:51:06;;;;;;;2.95;1.10;;;;;;;20.63;41.09;100529.53;5054374;28;20029;-74
2023/03/22 08:53:31;;;;;;;1.83;1.20;;;;;;;20.33;40.78;100480.13;5057051;28;20116;-73
2023/03/22 08:56:00;;;;;;;3.47;1.30;;;;;;;20.50;41.04;100505.06;5052341;28;20064;-74
2023/03/22 08:58:25;;;;;;;2.67;1.30;;;;;;;20.22;40.53;100454.44;5058283;28;20479;-74
2023/03/22 09:00:51;;;;;;;2.15;1.13;;;;;;;20.51;40.82;100492.41;5061380;28;20030;-74
2023/03/22 09:03:16;;;;;;;2.30;1.10;;;;;;;20.75;40.51;100520.97;5056053;28;20025;-74
2023/03/22 09:05:41;;;;;;;3.55;1.40;;;;;;;20.75;40.86;100526.38;5050299;28;20045;-74
2023/03/22 09:08:07;;;;;;;1.13;0.80;;;;;;;20.50;40.79;100482.63;5060100;28;20026;-74
2023/03/22 09:10:32;;;;;;;1.98;1.55;;;;;;;20.61;40.67;100490.25;5060117;28;20025;-73
2023/03/22 09:12:58;;;;;;;2.97;1.17;;;;;;;20.74;40.59;100527.41;5051307;28;20033;-74
2023/03/22 09:15:23;;;;;;;3.70;1.70;;;;;;;20.79;40.69;100516.84;5050756;28;20029;-74
2023/03/22 09:17:49;;;;;;;2.85;1.13;;;;;;;20.65;40.37;100494.25;5048517;28;20140;-74
2023/03/22 09:20:14;;;;;;;2.90;0.90;;;;;;;20.77;40.65;100508.06;5056957;28;20080;-74
2023/03/22 09:22:40;;;;;;;3.72;1.10;;;;;;;20.72;40.31;100500.53;5067265;28;20018;-74
2023/03/22 09:25:06;;;;;;;2.72;1.23;;;;;;;20.58;40.75;100474.41;5062063;28;20025;-74
2023/03/22 09:27:32;;;;;;;2.53;1.30;;;;;;;20.86;40.62;100512.38;5058141;28;20021;-73
2023/03/22 09:29:58;;;;;;;2.75;1.50;;;;;;;20.49;40.32;100462.06;5056178;28;20477;-74
2023/03/22 09:32:24;;;;;;;2.03;1.10;;;;;;;20.65;40.37;100481.59;5048844;28;20057;-74
2023/03/22 09:34:50;;;;;;;2.58;1.20;;;;;;;20.77;40.62;100492.69;5048840;28;20090;-76
2023/03/22 09:37:15;;;;;;;2.85;1.55;;;;;;;20.71;40.20;100486.22;5062752;28;20026;-74
2023/03/22 09:39:40;;;;;;;5.15;1.60;;;;;;;20.88;40.27;100507.59;5053950;28;20026;-74
2023/03/22 09:42:30;;;;;;;2.83;1.40;;;;;;;20.82;40.49;100506.50;5047930;28;20040;-73
2023/03/22 09:44:56;;;;;;;1.50;1.25;;;;;;;20.79;40.60;100495.22;5050593;28;20036;-73
2023/03/22 09:47:34;;;;;;;4.25;1.65;;;;;;;20.56;40.21;100460.25;5048224;28;20033;-73
2023/03/22 09:50:09;;;;;;;2.58;1.20;;;;;;;20.87;40.26;100511.34;5053215;28;20851;-73
2023/03/22 09:52:35;;;;;;;5.00;1.20;;;;;;;20.92;40.23;100522.41;5047378;28;20028;-73
2023/03/22 09:55:01;;;;;;;1.67;1.10;;;;;;;20.91;40.42;100526.97;5050333;28;20045;-73
2023/03/22 09:57:31;;;;;;;2.60;1.20;;;;;;;20.91;40.19;100521.56;5059851;28;20036;-74
2023/03/22 10:00:35;;;;;;;2.65;1.17;;;;;;;20.91;40.13;100518.88;5063871;28;20037;-74
2023/03/22 10:03:19;;;;;;;1.75;1.08;;;;;;;20.91;40.14;100518.03;5030020;28;20770;-74
2023/03/22 10:05:52;;;;;;;2.63;1.10;;;;;;;20.26;39.96;100413.56;5046207;28;20072;-75
2023/03/22 10:08:26;;;;;;;1.77;1.10;;;;;;;20.91;40.28;100520.72;5064195;28;20029;-74
2023/03/22 10:10:52;;;;;;;2.33;1.10;;;;;;;20.79;40.24;100509.56;5059657;28;20872;-74
2023/03/22 10:13:29;;;;;;;2.33;1.05;;;;;;;20.90;40.20;100522.59;5064874;28;20534;-74
2023/03/22 10:15:57;;;;;;;2.45;1.30;;;;;;;20.85;40.06;100522.31;5049058;28;20088;-74
2023/03/22 10:18:26;;;;;;;3.85;1.20;;;;;;;20.90;40.16;100521.75;5061305;28;20581;-74
2023/03/22 10:20:57;;;;;;;1.90;1.10;;;;;;;20.72;40.19;100498.69;5052350;28;20103;-74
2023/03/22 10:23:31;;;;;;;4.25;1.40;;;;;;;20.84;40.48;100515.25;5053056;28;20060;-74
2023/03/22 10:25:57;;;;;;;2.72;1.02;;;;;;;20.76;40.13;100506.41;5052370;28;20055;-75
2023/03/22 10:28:31;;;;;;;2.35;1.00;;;;;;;20.88;40.13;100524.63;5068910;28;20028;-76
2023/03/22 10:30:57;;;;;;;4.60;1.13;;;;;;;20.70;40.42;100491.81;5050974;28;20029;-74
2023/03/22 10:33:34;;;;;;;2.53;1.30;;;;;;;20.81;40.09;100517.47;5054026;28;20690;-74
2023/03/22 10:36:01;;;;;;;2.88;1.55;;;;;;;20.69;39.98;100490.97;5061673;28;20029;-74
2023/03/22 10:38:27;;;;;;;2.50;0.98;;;;;;;20.89;40.46;100525.47;5068848;28;20041;-74
2023/03/22 10:40:54;;;;;;;2.45;1.23;;;;;;;20.78;40.21;100524.13;5057392;28;20040;-73
2023/03/22 10:43:23;;;;;;;4.82;1.40;;;;;;;20.82;40.42;100530.81;5048413;28;20032;-74
2023/03/22 10:45:51;;;;;;;3.92;1.40;;;;;;;20.65;40.11;100492.38;5065495;28;20044;-74
2023/03/22 10:48:24;;;;;;;1.92;0.98;;;;;;;20.90;40.20;100535.28;5074517;28;20025;-74
2023/03/22 10:50:50;;;;;;;1.73;1.10;;;;;;;20.92;40.10;100535.91;5053619;28;20061;-74
2023/03/22 10:53:36;;;;;;;2.25;1.25;;;;;;;20.93;40.09;100529.47;5051615;28;20017;-75
2023/03/22 10:56:01;;;;;;;2.92;1.13;;;;;;;20.94;40.55;100537.41;5071974;28;20111;-74
2023/03/22 10:58:31;;;;;;;3.88;1.25;;;;;;;20.96;40.04;100546.16;5057641;28;20030;-74
2023/03/22 11:01:24;;;;;;;4.80;1.52;;;;;;;20.96;40.42;100546.16;5054018;28;20025;-73
2023/03/22 11:03:51;;;;;;;4.07;1.17;;;;;;;20.75;40.24;100516.38;5052634;28;20179;-73
2023/03/22 11:06:18;;;;;;;2.13;0.90;;;;;;;20.94;40.28;100528.44;5058120;28;20491;-74
2023/03/22 11:08:50;;;;;;;3.22;0.95;;;;;;;21.03;40.06;100540.81;5055493;28;20084;-73
2023/03/22 11:11:25;;;;;;;2.22;1.05;;;;;;;20.70;39.95;100473.72;5049637;28;20096;-74
2023/03/22 11:14:12;;;;;;;2.42;1.05;;;;;;;21.11;39.90;100542.53;5073776;28;20056;-74
2023/03/22 11:16:50;;;;;;;2.70;1.30;;;;;;;21.14;39.86;100537.59;5045148;28;20031;-73
2023/03/22 11:19:21;;;;;;;2.33;1.05;;;;;;;20.88;40.06;100494.09;5057312;28;20059;-72
2023/03/22 11:21:47;;;;;;;3.05;0.90;;;;;;;21.16;39.85;100540.13;5064143;28;20116;-72
2023/03/22 11:24:13;;;;;;;2.38;1.10;;;;;;;20.83;40.01;100481.16;5060071;28;20045;-72
2023/03/22 11:26:38;;;;;;;2.83;1.17;;;;;;;20.91;40.06;100499.94;5054819;28;20045;-73
2023/03/22 11:29:09;;;;;;;3.35;1.10;;;;;;;21.17;40.03;100525.56;5053553;28;20055;-73